createdAt,value
2017-12-09T00:00:53.987Z,1.3
2017-12-09T00:01:52.806Z,1.3
2017-12-09T00:02:51.906Z,1.3
2017-12-09T00:03:50.715Z,1.3
2017-12-09T00:04:49.923Z,1.2
2017-12-09T00:05:48.621Z,1.3
2017-12-09T00:06:47.936Z,1.3
2017-12-09T00:07:46.852Z,1.3
2017-12-09T00:08:45.669Z,1.2
2017-12-09T00:09:44.885Z,1.2
2017-12-09T00:10:43.478Z,1.2
2017-12-09T00:11:42.793Z,1.2
2017-12-09T00:12:41.710Z,1.2
2017-12-09T00:13:40.508Z,1.2
2017-12-09T00:14:39.432Z,1.1
2017-12-09T00:15:38.424Z,1.1
2017-12-09T00:16:37.633Z,1.1
2017-12-09T00:17:08.264Z,1.1
2017-12-09T00:17:38.674Z,1.1
2017-12-09T00:18:35.473Z,1.1
2017-12-09T00:19:05.994Z,1.1
2017-12-09T00:19:36.418Z,1
2017-12-09T00:20:06.730Z,1
2017-12-09T00:21:32.317Z,1.1
2017-12-09T00:22:31.518Z,1
2017-12-09T00:23:30.332Z,1
2017-12-09T00:24:29.148Z,1
2017-12-09T00:25:28.352Z,1
2017-12-09T00:26:26.949Z,1
2017-12-09T00:27:26.154Z,1
2017-12-09T00:28:25.365Z,1
2017-12-09T00:29:24.070Z,1
2017-12-09T00:29:54.593Z,1
2017-12-09T00:30:25.125Z,1.1
2017-12-09T00:31:21.816Z,1
2017-12-09T00:32:21.234Z,1
2017-12-09T00:33:19.943Z,1
2017-12-09T00:34:19.254Z,1
2017-12-09T00:36:17.050Z,0.9
2017-12-09T00:38:14.636Z,0.9
2017-12-09T00:39:13.865Z,0.9
2017-12-09T00:40:12.573Z,1
2017-12-09T00:41:11.778Z,0.9
2017-12-09T00:42:11.156Z,0.9
2017-12-09T00:43:09.958Z,1
2017-12-09T00:44:08.766Z,1
2017-12-09T00:45:07.871Z,1
2017-12-09T00:46:06.693Z,1
2017-12-09T00:47:05.505Z,1
2017-12-09T00:48:04.599Z,1
2017-12-09T00:49:03.302Z,1
2017-12-09T00:50:02.504Z,1
2017-12-09T00:51:01.614Z,1
2017-12-09T00:52:00.426Z,1
2017-12-09T00:52:59.631Z,1
2017-12-09T00:53:58.445Z,1.1
2017-12-09T00:54:57.554Z,1
2017-12-09T00:55:56.154Z,1
2017-12-09T00:56:55.569Z,1
2017-12-09T00:57:54.274Z,1
2017-12-09T00:58:53.372Z,1.1
2017-12-09T00:59:51.977Z,1
2017-12-09T01:00:51.294Z,1.1
2017-12-09T01:01:50.098Z,1.1
2017-12-09T01:02:49.087Z,1
2017-12-09T01:03:48.295Z,1
2017-12-09T01:04:46.997Z,1
2017-12-09T01:05:45.888Z,1
2017-12-09T01:06:45.307Z,1
2017-12-09T01:07:44.016Z,1
2017-12-09T01:08:42.836Z,1
2017-12-09T01:09:13.358Z,1
2017-12-09T01:09:43.982Z,1
2017-12-09T01:10:40.668Z,1.1
2017-12-09T01:11:40.087Z,1.1
2017-12-09T01:12:38.684Z,1.1
2017-12-09T01:13:37.783Z,1.1
2017-12-09T01:14:37.101Z,1.1
2017-12-09T01:15:35.535Z,1.1
2017-12-09T01:16:34.948Z,1.1
2017-12-09T01:17:33.766Z,1
2017-12-09T01:19:31.809Z,1
2017-12-09T01:20:30.619Z,1
2017-12-09T01:21:29.436Z,1
2017-12-09T01:22:28.651Z,1
2017-12-09T01:23:27.568Z,1
2017-12-09T01:24:26.375Z,0.9
2017-12-09T01:25:25.585Z,0.9
2017-12-09T01:26:24.399Z,0.9
2017-12-09T01:27:23.101Z,0.9
2017-12-09T01:28:22.315Z,0.9
2017-12-09T01:29:21.234Z,0.9
2017-12-09T01:30:20.155Z,0.9
2017-12-09T01:31:19.367Z,0.9
2017-12-09T01:32:18.074Z,0.9
2017-12-09T01:33:17.287Z,0.9
2017-12-09T01:34:16.096Z,0.9
2017-12-09T01:35:15.296Z,0.9
2017-12-09T01:36:14.400Z,0.9
2017-12-09T01:37:13.117Z,0.9
2017-12-09T01:38:12.108Z,0.9
2017-12-09T01:39:10.813Z,0.9
2017-12-09T01:40:10.027Z,0.9
2017-12-09T01:41:08.833Z,0.9
2017-12-09T01:42:08.041Z,0.9
2017-12-09T01:43:06.955Z,0.9
2017-12-09T01:44:05.764Z,0.9
2017-12-09T01:45:04.967Z,0.9
2017-12-09T01:46:04.059Z,0.9
2017-12-09T01:47:02.979Z,0.9
2017-12-09T01:48:01.685Z,0.9
2017-12-09T01:49:00.491Z,0.9
2017-12-09T01:49:59.796Z,0.9
2017-12-09T01:50:58.504Z,0.9
2017-12-09T01:51:57.313Z,0.9
2017-12-09T01:52:56.418Z,0.9
2017-12-09T01:53:26.936Z,0.9
2017-12-09T01:53:57.669Z,0.9
2017-12-09T01:54:28.089Z,0.9
2017-12-09T01:55:53.247Z,0.9
2017-12-09T01:56:52.352Z,0.8
2017-12-09T01:57:51.554Z,0.8
2017-12-09T01:58:50.262Z,0.8
2017-12-09T01:59:49.575Z,0.8
2017-12-09T02:00:48.393Z,0.8
2017-12-09T02:01:47.200Z,0.8
2017-12-09T02:02:46.192Z,0.8
2017-12-09T02:03:16.717Z,0.8
2017-12-09T02:03:47.133Z,0.8
2017-12-09T02:04:17.313Z,0.8
2017-12-09T02:05:43.189Z,0.8
2017-12-09T02:06:41.895Z,0.8
2017-12-09T02:07:40.886Z,0.8
2017-12-09T02:08:40.195Z,0.8
2017-12-09T02:09:39.184Z,0.8
2017-12-09T02:10:38.006Z,0.9
2017-12-09T02:11:36.823Z,0.9
2017-12-09T02:12:36.019Z,0.9
2017-12-09T02:13:34.717Z,0.9
2017-12-09T02:14:33.918Z,0.9
2017-12-09T02:15:32.837Z,0.9
2017-12-09T02:16:31.938Z,1
2017-12-09T02:17:30.752Z,1
2017-12-09T02:18:29.745Z,1
2017-12-09T02:19:28.450Z,1
2017-12-09T02:20:27.870Z,1
2017-12-09T02:21:26.572Z,1
2017-12-09T02:22:25.174Z,1
2017-12-09T02:23:24.384Z,1
2017-12-09T02:24:23.735Z,1
2017-12-09T02:25:22.566Z,1
2017-12-09T02:26:21.267Z,1
2017-12-09T02:27:20.575Z,1
2017-12-09T02:28:19.275Z,1
2017-12-09T02:29:18.372Z,1
2017-12-09T02:30:17.580Z,1.1
2017-12-09T02:31:16.503Z,1.1
2017-12-09T02:32:15.316Z,1.1
2017-12-09T02:32:45.840Z,1.1
2017-12-09T02:33:16.588Z,1.1
2017-12-09T02:33:47.224Z,1.1
2017-12-09T02:34:17.751Z,1.1
2017-12-09T02:34:48.413Z,1.1
2017-12-09T02:35:18.643Z,1.1
2017-12-09T02:35:49.164Z,1.1
2017-12-09T02:37:10.006Z,1.1
2017-12-09T02:38:08.894Z,1.2
2017-12-09T02:39:08.108Z,1.2
2017-12-09T02:40:06.880Z,1.2
2017-12-09T02:41:05.982Z,1.2
2017-12-09T02:42:05.202Z,1.3
2017-12-09T02:42:35.628Z,1.3
2017-12-09T02:43:06.161Z,1.3
2017-12-09T02:43:36.475Z,1.3
2017-12-09T02:44:07.007Z,1.3
2017-12-09T02:44:37.650Z,1.3
2017-12-09T02:45:07.882Z,1.3
2017-12-09T02:45:38.128Z,1.3
2017-12-09T02:46:08.756Z,1.3
2017-12-09T02:46:38.888Z,1.3
2017-12-09T02:47:58.629Z,1.3
2017-12-09T02:48:57.851Z,1.3
2017-12-09T02:49:56.852Z,1.4
2017-12-09T02:50:55.785Z,1.4
2017-12-09T02:51:54.592Z,1.4
2017-12-09T02:52:53.304Z,1.4
2017-12-09T02:53:52.538Z,1.4
2017-12-09T02:54:51.359Z,1.4
2017-12-09T02:55:50.675Z,1.3
2017-12-09T02:56:49.379Z,1.3
2017-12-09T02:57:48.297Z,1.3
2017-12-09T02:58:47.607Z,1.3
2017-12-09T02:59:46.450Z,1.3
2017-12-09T03:00:45.056Z,1.3
2017-12-09T03:01:44.270Z,1.3
2017-12-09T03:02:43.080Z,1.2
2017-12-09T03:03:42.391Z,1.1
2017-12-09T03:04:41.274Z,1.1
2017-12-09T03:05:40.484Z,1.1
2017-12-09T03:06:39.184Z,1
2017-12-09T03:07:38.401Z,0.9
2017-12-09T03:08:37.199Z,0.9
2017-12-09T03:09:36.007Z,0.9
2017-12-09T03:10:35.215Z,0.9
2017-12-09T03:11:33.920Z,0.9
2017-12-09T03:12:33.015Z,0.9
2017-12-09T03:13:31.820Z,0.9
2017-12-09T03:14:02.364Z,0.9
2017-12-09T03:14:32.448Z,0.9
2017-12-09T03:15:03.069Z,0.9
2017-12-09T03:15:33.588Z,0.9
2017-12-09T03:16:04.107Z,0.9
2017-12-09T03:17:27.868Z,0.9
2017-12-09T03:18:26.562Z,1
2017-12-09T03:19:25.888Z,1
2017-12-09T03:20:24.487Z,1
2017-12-09T03:21:23.693Z,1
2017-12-09T03:22:22.910Z,1
2017-12-09T03:23:21.501Z,1
2017-12-09T03:24:20.712Z,1.1
2017-12-09T03:24:50.733Z,1.1
2017-12-09T03:25:21.354Z,1.1
2017-12-09T03:25:51.667Z,1.1
2017-12-09T03:26:22.394Z,1.2
2017-12-09T03:27:17.577Z,1.2
2017-12-09T03:28:16.896Z,1.1
2017-12-09T03:29:15.600Z,1.1
2017-12-09T03:30:14.310Z,1.1
2017-12-09T03:31:13.652Z,1.1
2017-12-09T03:32:12.478Z,1.1
2017-12-09T03:33:11.284Z,1.1
2017-12-09T03:34:10.194Z,1.1
2017-12-09T03:35:09.621Z,1.1
2017-12-09T03:36:08.120Z,1.1
2017-12-09T03:37:07.213Z,1.1
2017-12-09T03:38:06.532Z,1.1
2017-12-09T03:39:05.350Z,1.1
2017-12-09T03:40:04.263Z,1
2017-12-09T03:41:02.972Z,1
2017-12-09T03:42:02.282Z,1
2017-12-09T03:43:01.099Z,1
2017-12-09T03:43:59.925Z,1
2017-12-09T03:44:58.922Z,1
2017-12-09T03:45:58.131Z,1
2017-12-09T03:46:56.946Z,1
2017-12-09T03:47:56.041Z,0.9
2017-12-09T03:48:54.846Z,0.9
2017-12-09T03:49:53.768Z,0.9
2017-12-09T03:50:52.865Z,0.9
2017-12-09T03:51:51.679Z,0.9
2017-12-09T03:52:51.047Z,0.9
2017-12-09T03:53:49.781Z,0.9
2017-12-09T03:55:47.890Z,0.9
2017-12-09T03:56:46.609Z,0.9
2017-12-09T03:57:45.389Z,0.9
2017-12-09T03:58:44.720Z,0.9
2017-12-09T03:59:43.332Z,1
2017-12-09T04:00:42.652Z,1
2017-12-09T04:01:41.363Z,1
2017-12-09T04:02:40.686Z,1.1
2017-12-09T04:03:39.467Z,1.1
2017-12-09T04:04:38.392Z,1.1
2017-12-09T04:05:37.717Z,1.1
2017-12-09T04:06:36.543Z,1.1
2017-12-09T04:07:35.145Z,1.1
2017-12-09T04:08:34.258Z,1.1
2017-12-09T04:09:33.083Z,1.1
2017-12-09T04:10:32.379Z,1.1
2017-12-09T04:11:31.107Z,1.2
2017-12-09T04:12:30.440Z,1.1
2017-12-09T04:13:29.269Z,1.1
2017-12-09T04:14:28.097Z,1.2
2017-12-09T04:15:27.318Z,1.1
2017-12-09T04:16:26.321Z,1.1
2017-12-09T04:17:24.931Z,1.1
2017-12-09T04:18:24.361Z,1.1
2017-12-09T04:19:22.855Z,1.1
2017-12-09T04:20:22.079Z,1.1
2017-12-09T04:21:21.085Z,1.1
2017-12-09T04:22:19.801Z,1.1
2017-12-09T04:23:19.121Z,1.1
2017-12-09T04:24:17.871Z,1.1
2017-12-09T04:25:17.093Z,1.1
2017-12-09T04:26:15.910Z,1.1
2017-12-09T04:27:14.623Z,1.1
2017-12-09T04:28:13.956Z,1.1
2017-12-09T04:29:12.659Z,1.1
2017-12-09T04:30:11.978Z,1.1
2017-12-09T04:31:10.690Z,1.1
2017-12-09T04:32:09.692Z,1.1
2017-12-09T04:33:08.907Z,1.1
2017-12-09T04:34:07.508Z,1.1
2017-12-09T04:35:06.835Z,1.1
2017-12-09T04:36:05.555Z,1.2
2017-12-09T04:37:04.370Z,1.2
2017-12-09T04:38:03.598Z,1.2
2017-12-09T04:39:02.422Z,1.2
2017-12-09T04:40:01.536Z,1.2
2017-12-09T04:41:00.402Z,1.2
2017-12-09T04:41:59.414Z,1.2
2017-12-09T04:42:58.239Z,1.2
2017-12-09T04:43:56.959Z,1.2
2017-12-09T04:44:56.457Z,1.2
2017-12-09T04:45:55.078Z,1.2
2017-12-09T04:46:54.409Z,1.2
2017-12-09T04:47:53.127Z,1.2
2017-12-09T04:48:52.489Z,1.2
2017-12-09T04:49:22.981Z,1.2
2017-12-09T04:49:53.511Z,1.3
2017-12-09T04:50:24.051Z,1.3
2017-12-09T04:50:54.685Z,1.3
2017-12-09T04:51:49.282Z,1.3
2017-12-09T04:52:48.106Z,1.3
2017-12-09T04:53:47.013Z,1.3
2017-12-09T04:54:46.232Z,1.2
2017-12-09T04:55:44.953Z,1.2
2017-12-09T04:56:44.167Z,1.3
2017-12-09T04:58:41.972Z,1.3
2017-12-09T04:59:12.106Z,1.3
2017-12-09T04:59:42.741Z,1.3
2017-12-09T05:00:13.492Z,1.3
2017-12-09T05:00:43.624Z,1.3
2017-12-09T05:01:14.049Z,1.3
2017-12-09T05:03:36.804Z,1.2
2017-12-09T05:04:36.016Z,1.3
2017-12-09T05:05:34.846Z,1.3
2017-12-09T05:06:33.457Z,1.2
2017-12-09T05:07:32.885Z,1.2
2017-12-09T05:08:31.823Z,1.2
2017-12-09T05:09:30.433Z,1.2
2017-12-09T05:10:29.757Z,1.2
2017-12-09T05:11:28.463Z,1.2
2017-12-09T05:12:27.687Z,1.1
2017-12-09T05:13:26.407Z,1.1
2017-12-09T05:14:25.227Z,1.1
2017-12-09T05:15:24.338Z,1.1
2017-12-09T05:16:23.157Z,1.1
2017-12-09T05:17:22.158Z,1.1
2017-12-09T05:18:21.377Z,1.1
2017-12-09T05:19:20.197Z,1
2017-12-09T05:20:19.020Z,1
2017-12-09T05:21:18.129Z,1
2017-12-09T05:22:17.451Z,1
2017-12-09T05:23:16.164Z,1
2017-12-09T05:24:15.380Z,1
2017-12-09T05:25:14.308Z,1
2017-12-09T05:26:13.029Z,1
2017-12-09T05:27:12.246Z,1
2017-12-09T05:28:11.065Z,1
2017-12-09T05:29:10.176Z,1
2017-12-09T05:30:08.989Z,0.9
2017-12-09T05:31:07.939Z,0.9
2017-12-09T05:32:07.173Z,0.9
2017-12-09T05:33:05.999Z,0.9
2017-12-09T05:34:04.711Z,0.9
2017-12-09T05:35:03.830Z,0.9
2017-12-09T05:36:02.841Z,0.9
2017-12-09T05:37:01.858Z,0.9
2017-12-09T05:38:00.971Z,0.9
2017-12-09T05:38:59.806Z,0.9
2017-12-09T05:39:58.797Z,0.9
2017-12-09T05:40:29.335Z,0.9
2017-12-09T05:40:59.869Z,0.9
2017-12-09T05:41:30.505Z,0.9
2017-12-09T05:42:55.492Z,0.9
2017-12-09T05:43:54.915Z,0.9
2017-12-09T05:44:53.622Z,0.9
2017-12-09T05:45:52.439Z,0.9
2017-12-09T05:46:51.767Z,0.9
2017-12-09T05:47:50.590Z,0.9
2017-12-09T05:48:49.196Z,0.9
2017-12-09T05:49:48.637Z,0.8
2017-12-09T05:50:47.448Z,0.8
2017-12-09T05:51:46.358Z,0.8
2017-12-09T05:52:45.576Z,0.9
2017-12-09T05:53:44.291Z,0.9
2017-12-09T05:54:43.619Z,0.9
2017-12-09T05:55:42.346Z,0.9
2017-12-09T05:56:41.161Z,0.9
2017-12-09T05:57:40.163Z,0.9
2017-12-09T05:58:39.495Z,0.8
2017-12-09T05:59:37.997Z,0.9
2017-12-09T06:00:37.217Z,0.9
2017-12-09T06:01:35.932Z,0.9
2017-12-09T06:02:35.364Z,0.9
2017-12-09T06:03:34.299Z,0.8
2017-12-09T06:04:33.115Z,0.9
2017-12-09T06:05:32.055Z,0.9
2017-12-09T06:06:30.660Z,0.9
2017-12-09T06:07:01.293Z,0.9
2017-12-09T06:07:32.037Z,0.9
2017-12-09T06:08:28.842Z,0.9
2017-12-09T06:09:28.467Z,0.9
2017-12-09T06:10:26.838Z,0.9
2017-12-09T06:11:25.965Z,0.8
2017-12-09T06:12:24.680Z,0.8
2017-12-09T06:13:23.905Z,0.9
2017-12-09T06:14:22.420Z,0.9
2017-12-09T06:15:21.533Z,0.9
2017-12-09T06:16:20.756Z,0.9
2017-12-09T06:16:51.191Z,0.9
2017-12-09T06:17:21.728Z,0.9
2017-12-09T06:17:52.271Z,0.9
2017-12-09T06:18:22.807Z,0.9
2017-12-09T06:19:17.859Z,0.9
2017-12-09T06:20:16.564Z,0.9
2017-12-09T06:21:15.490Z,0.9
2017-12-09T06:22:14.201Z,0.9
2017-12-09T06:23:13.324Z,0.9
2017-12-09T06:24:12.644Z,0.9
2017-12-09T06:25:11.461Z,0.9
2017-12-09T06:26:10.286Z,0.9
2017-12-09T06:27:09.556Z,0.9
2017-12-09T06:28:08.185Z,0.9
2017-12-09T06:29:07.200Z,0.9
2017-12-09T06:30:06.541Z,0.9
2017-12-09T06:31:05.468Z,0.9
2017-12-09T06:32:04.395Z,0.9
2017-12-09T06:33:03.115Z,0.9
2017-12-09T06:34:01.947Z,0.9
2017-12-09T06:35:01.263Z,0.9
2017-12-09T06:35:59.981Z,1
2017-12-09T06:36:58.921Z,0.9
2017-12-09T06:37:58.245Z,1
2017-12-09T06:38:57.073Z,0.9
2017-12-09T06:39:56.185Z,0.9
2017-12-09T06:40:55.018Z,1
2017-12-09T06:41:53.848Z,0.9
2017-12-09T06:42:52.963Z,0.9
2017-12-09T06:43:51.789Z,1
2017-12-09T06:44:51.016Z,1
2017-12-09T06:45:49.953Z,1
2017-12-09T06:46:48.676Z,1
2017-12-09T06:47:19.228Z,1
2017-12-09T06:47:49.762Z,1
2017-12-09T06:48:46.372Z,1
2017-12-09T06:49:45.491Z,1
2017-12-09T06:51:43.592Z,1
2017-12-09T06:52:42.416Z,1.1
2017-12-09T06:53:41.738Z,1.1
2017-12-09T06:54:40.457Z,1.1
2017-12-09T06:55:39.462Z,1.1
2017-12-09T06:56:10.107Z,1.1
2017-12-09T06:56:40.647Z,1.1
2017-12-09T06:57:11.172Z,1.1
2017-12-09T06:57:41.596Z,1.1
2017-12-09T06:58:12.242Z,1.1
2017-12-09T06:58:42.384Z,1.1
2017-12-09T06:59:13.018Z,1.1
2017-12-09T07:00:33.984Z,1.2
2017-12-09T07:01:33.313Z,1.2
2017-12-09T07:02:32.129Z,1.1
2017-12-09T07:03:31.243Z,1.2
2017-12-09T07:04:30.061Z,1.2
2017-12-09T07:05:28.881Z,1.2
2017-12-09T07:06:28.208Z,1.2
2017-12-09T07:07:27.020Z,1.2
2017-12-09T07:08:25.940Z,1.2
2017-12-09T07:08:56.365Z,1.2
2017-12-09T07:10:23.672Z,1.2
2017-12-09T07:11:22.883Z,1.3
2017-12-09T07:12:22.106Z,1.2
2017-12-09T07:13:20.823Z,1.2
2017-12-09T07:14:19.743Z,1.3
2017-12-09T07:15:18.846Z,1.3
2017-12-09T07:16:17.961Z,1.3
2017-12-09T07:17:17.070Z,1.3
2017-12-09T07:18:15.674Z,1.3
2017-12-09T07:19:14.681Z,1.3
2017-12-09T07:20:13.898Z,1.3
2017-12-09T07:21:12.720Z,1.3
2017-12-09T07:22:11.463Z,1.4
2017-12-09T07:23:10.783Z,1.4
2017-12-09T07:24:09.713Z,1.4
2017-12-09T07:25:08.534Z,1.4
2017-12-09T07:26:07.752Z,1.4
2017-12-09T07:27:06.567Z,1.4
2017-12-09T07:28:05.291Z,1.4
2017-12-09T07:29:04.619Z,1.4
2017-12-09T07:30:03.349Z,1.4
2017-12-09T07:31:02.051Z,1.4
2017-12-09T07:32:01.390Z,1.5
2017-12-09T07:33:00.226Z,1.5
2017-12-09T07:33:59.344Z,1.5
2017-12-09T07:34:58.629Z,1.5
2017-12-09T07:35:57.459Z,1.5
2017-12-09T07:36:28.002Z,1.5
2017-12-09T07:36:58.431Z,1.5
2017-12-09T07:37:28.976Z,1.5
2017-12-09T07:37:59.518Z,1.5
2017-12-09T07:38:30.042Z,1.5
2017-12-09T07:39:00.676Z,1.5
2017-12-09T07:39:31.106Z,1.5
2017-12-09T07:40:51.974Z,1.5
2017-12-09T07:41:51.295Z,1.6
2017-12-09T07:42:50.021Z,1.5
2017-12-09T07:43:48.958Z,1.5
2017-12-09T07:44:47.879Z,1.5
2017-12-09T07:45:47.094Z,1.5
2017-12-09T07:46:46.127Z,1.5
2017-12-09T07:47:44.674Z,1.5
2017-12-09T07:48:43.999Z,1.6
2017-12-09T07:49:14.427Z,1.6
2017-12-09T07:49:44.957Z,1.6
2017-12-09T07:50:15.500Z,1.6
2017-12-09T07:50:46.131Z,1.6
2017-12-09T07:51:40.813Z,1.6
2017-12-09T07:52:39.710Z,1.6
2017-12-09T07:53:38.822Z,1.6
2017-12-09T07:54:37.542Z,1.6
2017-12-09T07:55:36.549Z,1.7
2017-12-09T07:56:35.769Z,1.6
2017-12-09T07:57:34.596Z,1.7
2017-12-09T07:58:33.928Z,1.7
2017-12-09T07:59:32.748Z,1.7
2017-12-09T08:00:31.864Z,1.7
2017-12-09T08:01:30.692Z,1.7
2017-12-09T08:02:29.522Z,1.7
2017-12-09T08:03:28.659Z,1.7
2017-12-09T08:04:27.779Z,1.8
2017-12-09T08:05:26.710Z,1.8
2017-12-09T08:06:25.332Z,1.7
2017-12-09T08:07:24.760Z,1.7
2017-12-09T08:09:22.362Z,1.7
2017-12-09T08:10:21.908Z,1.7
2017-12-09T08:11:20.516Z,1.8
2017-12-09T08:12:19.333Z,1.8
2017-12-09T08:13:18.659Z,1.8
2017-12-09T08:14:17.371Z,1.8
2017-12-09T08:16:15.170Z,1.8
2017-12-09T08:17:14.380Z,1.8
2017-12-09T08:17:44.724Z,1.8
2017-12-09T08:18:14.855Z,1.8
2017-12-09T08:18:45.637Z,1.8
2017-12-09T08:20:11.400Z,1.8
2017-12-09T08:21:10.215Z,1.7
2017-12-09T08:22:09.326Z,1.7
2017-12-09T08:23:08.154Z,1.7
2017-12-09T08:24:07.054Z,1.6
2017-12-09T08:25:06.272Z,1.6
2017-12-09T08:26:04.993Z,1.6
2017-12-09T08:27:04.214Z,1.6
2017-12-09T08:28:03.161Z,1.6
2017-12-09T08:28:33.412Z,1.6
2017-12-09T08:29:03.835Z,1.6
2017-12-09T08:31:00.029Z,1.7
2017-12-09T08:31:58.740Z,1.7
2017-12-09T08:33:56.945Z,1.8
2017-12-09T08:34:56.048Z,1.8
2017-12-09T08:35:54.969Z,1.8
2017-12-09T08:36:53.797Z,1.8
2017-12-09T08:37:53.192Z,1.8
2017-12-09T08:38:51.695Z,1.8
2017-12-09T08:39:51.020Z,1.8
2017-12-09T08:40:49.734Z,1.8
2017-12-09T08:41:48.959Z,1.8
2017-12-09T08:42:47.782Z,1.8
2017-12-09T08:44:45.783Z,1.7
2017-12-09T08:45:44.683Z,1.7
2017-12-09T08:46:43.912Z,1.7
2017-12-09T08:47:42.520Z,1.7
2017-12-09T08:48:41.641Z,1.7
2017-12-09T08:49:40.465Z,1.7
2017-12-09T08:50:39.694Z,1.7
2017-12-09T08:51:38.913Z,1.7
2017-12-09T08:52:37.622Z,1.8
2017-12-09T08:53:36.725Z,1.8
2017-12-09T08:54:35.431Z,1.8
2017-12-09T08:55:34.755Z,1.8
2017-12-09T08:56:33.657Z,1.8
2017-12-09T08:57:32.583Z,1.8
2017-12-09T08:58:31.189Z,1.9
2017-12-09T09:00:29.582Z,1.9
2017-12-09T09:01:28.702Z,1.9
2017-12-09T09:02:27.419Z,1.9
2017-12-09T09:03:26.535Z,2
2017-12-09T09:04:25.349Z,2
2017-12-09T09:05:24.056Z,2
2017-12-09T09:07:22.258Z,2
2017-12-09T09:08:21.478Z,2
2017-12-09T09:09:20.485Z,2
2017-12-09T09:10:19.306Z,2
2017-12-09T09:12:17.296Z,2
2017-12-09T09:12:47.714Z,2
2017-12-09T09:13:18.248Z,2
2017-12-09T09:13:48.668Z,2
2017-12-09T09:14:18.994Z,2
2017-12-09T09:14:49.317Z,2
2017-12-09T09:16:13.089Z,2
2017-12-09T09:17:12.421Z,2
2017-12-09T09:18:11.238Z,2
2017-12-09T09:19:09.969Z,1.9
2017-12-09T09:20:09.293Z,1.9
2017-12-09T09:21:07.905Z,1.9
2017-12-09T09:22:07.124Z,1.9
2017-12-09T09:23:06.239Z,1.9
2017-12-09T09:24:04.847Z,1.9
2017-12-09T09:25:04.057Z,1.9
2017-12-09T09:26:02.883Z,1.9
2017-12-09T09:27:01.802Z,1.9
2017-12-09T09:28:01.127Z,1.9
2017-12-09T09:29:00.133Z,1.9
2017-12-09T09:29:58.625Z,1.9
2017-12-09T09:31:56.833Z,1.9
2017-12-09T09:32:55.939Z,1.9
2017-12-09T09:33:55.160Z,1.9
2017-12-09T09:34:54.099Z,1.9
2017-12-09T09:36:51.702Z,1.9
2017-12-09T09:37:50.896Z,1.9
2017-12-09T09:38:49.517Z,1.9
2017-12-09T09:39:48.625Z,1.9
2017-12-09T09:40:47.633Z,1.9
2017-12-09T09:41:46.643Z,2
2017-12-09T09:42:17.289Z,2
2017-12-09T09:42:47.716Z,2
2017-12-09T09:43:44.528Z,2
2017-12-09T09:45:42.740Z,2
2017-12-09T09:46:41.574Z,2
2017-12-09T09:47:40.502Z,2
2017-12-09T09:48:39.717Z,2.1
2017-12-09T09:50:37.714Z,2.1
2017-12-09T09:51:36.436Z,2.1
2017-12-09T09:52:07.075Z,2.1
2017-12-09T09:52:37.615Z,2.1
2017-12-09T09:53:08.038Z,2.1
2017-12-09T09:54:33.647Z,2.1
2017-12-09T09:55:03.970Z,2.1
2017-12-09T09:55:34.514Z,2.1
2017-12-09T09:56:05.031Z,2.1
2017-12-09T09:57:30.504Z,2.1
2017-12-09T10:00:27.590Z,2.1
2017-12-09T10:02:25.475Z,2.1
2017-12-09T10:02:55.608Z,2.1
2017-12-09T10:04:23.441Z,2.1
2017-12-09T10:05:22.266Z,2.1
2017-12-09T10:06:21.585Z,2
2017-12-09T10:07:20.305Z,2
2017-12-09T10:09:18.183Z,2
2017-12-09T10:10:17.511Z,2
2017-12-09T10:11:16.288Z,2
2017-12-09T10:12:15.214Z,2
2017-12-09T10:13:14.327Z,2
2017-12-09T10:14:13.258Z,2
2017-12-09T10:15:12.071Z,2
2017-12-09T10:16:11.291Z,2
2017-12-09T10:17:10.503Z,2
2017-12-09T10:18:09.430Z,2
2017-12-09T10:19:08.260Z,1.9
2017-12-09T10:20:06.972Z,1.9
2017-12-09T10:21:06.199Z,1.9
2017-12-09T10:22:05.036Z,1.9
2017-12-09T10:23:04.529Z,1.9
2017-12-09T10:24:03.271Z,1.9
2017-12-09T10:25:01.879Z,1.8
2017-12-09T10:26:01.202Z,1.8
2017-12-09T10:27:59.189Z,1.8
2017-12-09T10:28:57.809Z,1.8
2017-12-09T10:29:57.247Z,1.8
2017-12-09T10:31:54.731Z,1.8
2017-12-09T10:32:53.738Z,1.8
2017-12-09T10:33:53.067Z,1.8
2017-12-09T10:34:23.619Z,1.8
2017-12-09T10:34:54.151Z,1.7
2017-12-09T10:35:24.402Z,1.7
2017-12-09T10:36:49.688Z,1.6
2017-12-09T10:39:46.782Z,1.4
2017-12-09T10:40:46.007Z,1.4
2017-12-09T10:41:44.726Z,1.3
2017-12-09T10:42:43.851Z,1.3
2017-12-09T10:43:42.564Z,1.3
2017-12-09T10:44:13.105Z,1.3
2017-12-09T10:44:43.134Z,1.3
2017-12-09T10:45:13.888Z,1.3
2017-12-09T10:46:39.992Z,1.2
2017-12-09T10:47:38.706Z,1.1
2017-12-09T10:48:37.692Z,1.1
2017-12-09T10:49:36.807Z,1.1
2017-12-09T10:50:35.746Z,1.1
2017-12-09T10:51:34.251Z,1.1
2017-12-09T10:52:33.584Z,1.1
2017-12-09T10:54:31.593Z,1.1
2017-12-09T10:55:30.707Z,1
2017-12-09T10:56:29.642Z,1
2017-12-09T10:57:28.460Z,1
2017-12-09T10:58:27.788Z,1
2017-12-09T10:59:26.502Z,1.1
2017-12-09T11:00:25.213Z,1.1
2017-12-09T11:01:24.196Z,1.1
2017-12-09T11:02:23.514Z,1.1
2017-12-09T11:03:22.231Z,1.1
2017-12-09T11:04:21.453Z,1.2
2017-12-09T11:05:20.275Z,1.2
2017-12-09T11:06:19.508Z,1.2
2017-12-09T11:07:18.329Z,1.2
2017-12-09T11:08:17.443Z,1.3
2017-12-09T11:09:16.167Z,1.4
2017-12-09T11:11:14.479Z,1.5
2017-12-09T11:12:13.110Z,1.5
2017-12-09T11:13:12.329Z,1.5
2017-12-09T11:14:11.146Z,1.5
2017-12-09T11:15:10.255Z,1.5
2017-12-09T11:16:08.969Z,1.5
2017-12-09T11:17:07.740Z,1.5
2017-12-09T11:18:06.981Z,1.5
2017-12-09T11:19:05.807Z,1.5
2017-12-09T11:20:04.866Z,1.5
2017-12-09T11:21:03.921Z,1.5
2017-12-09T11:22:03.136Z,1.5
2017-12-09T11:23:01.861Z,1.5
2017-12-09T11:24:00.863Z,1.5
2017-12-09T11:24:59.788Z,1.4
2017-12-09T11:25:59.064Z,1.4
2017-12-09T11:26:57.773Z,1.4
2017-12-09T11:27:56.994Z,1.4
2017-12-09T11:28:55.718Z,1.4
2017-12-09T11:29:54.840Z,1.4
2017-12-09T11:30:53.665Z,1.4
2017-12-09T11:31:52.389Z,1.4
2017-12-09T11:32:51.623Z,1.4
2017-12-09T11:33:50.541Z,1.4
2017-12-09T11:34:49.811Z,1.4
2017-12-09T11:35:48.453Z,1.4
2017-12-09T11:36:47.688Z,1.4
2017-12-09T11:37:46.410Z,1.4
2017-12-09T11:38:45.641Z,1.4
2017-12-09T11:39:44.518Z,1.4
2017-12-09T11:40:43.442Z,1.4
2017-12-09T11:41:42.268Z,1.3
2017-12-09T11:42:41.490Z,1.3
2017-12-09T11:43:40.312Z,1.2
2017-12-09T11:44:39.546Z,1.2
2017-12-09T11:45:38.266Z,1.2
2017-12-09T11:46:37.382Z,1.3
2017-12-09T11:47:36.214Z,1.3
2017-12-09T11:48:35.110Z,1.3
2017-12-09T11:49:34.107Z,1.3
2017-12-09T11:50:33.227Z,1.3
2017-12-09T11:51:32.046Z,1.3
2017-12-09T11:52:30.763Z,1.3
2017-12-09T11:53:30.087Z,1.3
2017-12-09T11:54:29.310Z,1.2
2017-12-09T11:55:43.002Z,1.2
2017-12-09T11:56:27.229Z,1.2
2017-12-09T11:57:25.944Z,1.2
2017-12-09T11:58:25.162Z,1.2
2017-12-09T11:59:24.271Z,1.2
2017-12-09T12:00:22.883Z,1.2
2017-12-09T12:01:21.994Z,1.2
2017-12-09T12:01:52.525Z,1.2
2017-12-09T12:03:19.707Z,1.2
2017-12-09T12:04:18.920Z,1.2
2017-12-09T12:05:17.629Z,1.2
2017-12-09T12:06:16.745Z,1.1
2017-12-09T12:07:15.854Z,1.1
2017-12-09T12:08:14.756Z,1.1
2017-12-09T12:08:45.274Z,1.1
2017-12-09T12:09:15.802Z,1.1
2017-12-09T12:10:12.501Z,1.1
2017-12-09T12:11:11.839Z,1.1
2017-12-09T12:12:10.447Z,1.2
2017-12-09T12:13:09.812Z,1.3
2017-12-09T12:14:08.679Z,1.3
2017-12-09T12:15:07.395Z,1.3
2017-12-09T12:16:06.721Z,1.4
2017-12-09T12:17:05.506Z,1.4
2017-12-09T12:18:04.621Z,1.4
2017-12-09T12:19:03.731Z,1.5
2017-12-09T12:20:02.442Z,1.5
2017-12-09T12:21:01.270Z,1.5
2017-12-09T12:22:00.490Z,1.5
2017-12-09T12:22:59.422Z,1.5
2017-12-09T12:23:58.124Z,1.5
2017-12-09T12:24:57.242Z,1.5
2017-12-09T12:25:56.355Z,1.5
2017-12-09T12:26:55.071Z,1.5
2017-12-09T12:27:54.080Z,1.5
2017-12-09T12:28:53.468Z,1.5
2017-12-09T12:29:52.393Z,1.5
2017-12-09T12:30:51.116Z,1.5
2017-12-09T12:31:50.401Z,1.5
2017-12-09T12:33:47.923Z,1.6
2017-12-09T12:34:47.033Z,1.6
2017-12-09T12:35:46.147Z,1.6
2017-12-09T12:36:44.867Z,1.6
2017-12-09T12:37:43.795Z,1.6
2017-12-09T12:38:43.115Z,1.6
2017-12-09T12:39:41.937Z,1.6
2017-12-09T12:40:40.869Z,1.6
2017-12-09T12:42:38.582Z,1.6
2017-12-09T12:43:09.120Z,1.6
2017-12-09T12:43:39.676Z,1.6
2017-12-09T12:44:36.781Z,1.6
2017-12-09T12:45:35.905Z,1.6
2017-12-09T12:46:34.529Z,1.6
2017-12-09T12:47:33.662Z,1.6
2017-12-09T12:48:32.894Z,1.6
2017-12-09T12:49:31.714Z,1.6
2017-12-09T12:50:30.841Z,1.6
2017-12-09T12:51:29.755Z,1.6
2017-12-09T12:52:28.402Z,1.6
2017-12-09T12:53:27.626Z,1.6
2017-12-09T12:55:25.517Z,1.7
2017-12-09T12:56:24.532Z,1.6
2017-12-09T12:57:23.655Z,1.7
2017-12-09T12:58:22.482Z,1.6
2017-12-09T12:59:21.492Z,1.6
2017-12-09T13:00:20.321Z,1.6
2017-12-09T13:02:18.320Z,1.6
2017-12-09T13:03:17.447Z,1.6
2017-12-09T13:04:16.326Z,1.6
2017-12-09T13:05:15.437Z,1.6
2017-12-09T13:06:14.358Z,1.7
2017-12-09T13:07:13.283Z,1.7
2017-12-09T13:08:12.501Z,1.7
2017-12-09T13:09:11.225Z,1.7
2017-12-09T13:10:10.173Z,1.7
2017-12-09T13:11:09.400Z,1.7
2017-12-09T13:12:08.224Z,1.7
2017-12-09T13:13:06.851Z,1.7
2017-12-09T13:14:06.172Z,1.7
2017-12-09T13:15:04.887Z,1.7
2017-12-09T13:16:04.102Z,1.7
2017-12-09T13:17:03.319Z,1.7
2017-12-09T13:18:01.933Z,1.7
2017-12-09T13:19:01.151Z,1.7
2017-12-09T13:19:59.859Z,1.7
2017-12-09T13:20:59.081Z,1.7
2017-12-09T13:21:57.906Z,1.7
2017-12-09T13:22:56.734Z,1.7
2017-12-09T13:23:55.955Z,1.7
2017-12-09T13:24:55.061Z,1.7
2017-12-09T13:25:53.772Z,1.7
2017-12-09T13:26:52.886Z,1.7
2017-12-09T13:27:51.599Z,1.7
2017-12-09T13:28:50.608Z,1.7
2017-12-09T13:29:49.827Z,1.7